createdAt,value
2023-05-05T00:02:21.327Z,6.53
2023-05-05T00:04:49.051Z,7.00
2023-05-05T00:07:16.842Z,10.30
2023-05-05T00:09:44.713Z,5.90
2023-05-05T00:12:12.494Z,6.30
2023-05-05T00:14:40.266Z,6.93
2023-05-05T00:17:07.899Z,6.67
2023-05-05T00:19:35.711Z,5.43
2023-05-05T00:22:03.438Z,6.27
2023-05-05T00:24:31.494Z,8.87
2023-05-05T00:26:59.303Z,6.70
2023-05-05T00:29:27.151Z,7.90
2023-05-05T00:31:54.814Z,10.53
2023-05-05T00:34:23.028Z,6.70
2023-05-05T00:36:50.694Z,6.77
2023-05-05T00:39:18.395Z,6.80
2023-05-05T00:41:46.264Z,6.43
2023-05-05T00:44:13.985Z,6.43
2023-05-05T00:46:44.271Z,9.63
2023-05-05T00:49:12.362Z,6.30
2023-05-05T00:51:40.214Z,6.40
2023-05-05T00:54:08.246Z,7.23
2023-05-05T00:56:36.934Z,7.43
2023-05-05T00:59:04.660Z,9.03
2023-05-05T01:01:32.878Z,6.73
2023-05-05T01:04:01.633Z,6.57
2023-05-05T01:07:41.168Z,6.57
2023-05-05T01:10:50.566Z,5.80
2023-05-05T01:13:50.279Z,9.73
2023-05-05T01:16:33.562Z,8.73
2023-05-05T01:19:26.279Z,7.50
2023-05-05T01:22:04.020Z,7.07
2023-05-05T01:24:57.069Z,7.27
2023-05-05T01:28:48.347Z,7.60
2023-05-05T01:32:01.584Z,8.63
2023-05-05T01:35:04.588Z,8.30
2023-05-05T01:38:03.311Z,6.90
2023-05-05T01:40:45.131Z,11.43
2023-05-05T01:43:20.262Z,6.00
2023-05-05T01:45:51.740Z,6.30
2023-05-05T01:48:23.116Z,7.00
2023-05-05T01:50:53.443Z,5.07
2023-05-05T01:53:25.798Z,9.67
2023-05-05T01:55:57.039Z,5.90
2023-05-05T01:58:28.752Z,7.97
2023-05-05T02:00:59.361Z,6.20
2023-05-05T02:03:32.237Z,7.00
2023-05-05T02:06:03.848Z,9.13
2023-05-05T02:08:34.931Z,8.70
2023-05-05T02:11:04.693Z,6.80
2023-05-05T02:13:33.760Z,5.90
2023-05-05T02:16:06.379Z,5.43
2023-05-05T02:18:36.164Z,7.60
2023-05-05T02:21:05.767Z,7.80
2023-05-05T02:23:33.915Z,8.37
2023-05-05T02:26:09.612Z,10.17
2023-05-05T02:29:05.778Z,9.23
2023-05-05T02:31:46.896Z,10.23
2023-05-05T02:34:28.288Z,8.80
2023-05-05T02:37:05.443Z,10.70
2023-05-05T02:40:04.659Z,8.87
2023-05-05T02:42:47.082Z,9.20
2023-05-05T02:45:22.912Z,10.93
2023-05-05T02:47:51.117Z,14.17
2023-05-05T02:50:21.083Z,17.53
2023-05-05T02:53:08.210Z,12.80
2023-05-05T02:56:38.406Z,10.93
2023-05-05T02:59:31.993Z,13.93
2023-05-05T03:02:46.933Z,12.10
2023-05-05T03:05:51.651Z,15.43
2023-05-05T03:08:54.993Z,14.00
2023-05-05T03:12:05.875Z,13.73
2023-05-05T03:14:47.281Z,14.93
2023-05-05T03:17:21.722Z,15.23
2023-05-05T03:19:51.971Z,15.40
2023-05-05T03:22:20.580Z,15.90
2023-05-05T03:24:52.190Z,19.17
2023-05-05T03:27:23.987Z,15.03
2023-05-05T03:29:52.946Z,17.40
2023-05-05T03:32:23.872Z,14.27
2023-05-05T03:34:54.775Z,13.90
2023-05-05T03:37:27.630Z,20.50
2023-05-05T03:39:55.600Z,20.70
2023-05-05T03:42:23.525Z,20.10
2023-05-05T03:44:53.967Z,16.73
2023-05-05T03:47:24.814Z,16.67
2023-05-05T03:49:54.509Z,17.77
2023-05-05T03:52:22.489Z,21.23
2023-05-05T03:54:50.126Z,16.80
2023-05-05T03:57:19.170Z,19.30
2023-05-05T03:59:46.930Z,17.20
2023-05-05T04:02:16.046Z,16.67
2023-05-05T04:04:45.568Z,29.17
2023-05-05T04:07:13.471Z,17.63
2023-05-05T04:09:44.637Z,16.60
2023-05-05T04:12:14.217Z,17.40
2023-05-05T04:14:42.098Z,20.13
2023-05-05T04:17:11.115Z,19.97
2023-05-05T04:19:39.185Z,20.10
2023-05-05T04:22:09.157Z,19.17
2023-05-05T04:24:37.370Z,20.07
2023-05-05T04:27:05.522Z,17.60
2023-05-05T04:29:33.810Z,18.50
2023-05-05T04:32:02.198Z,16.80
2023-05-05T04:34:30.907Z,18.23
2023-05-05T04:36:58.846Z,18.80
2023-05-05T04:39:26.578Z,19.00
2023-05-05T04:41:55.286Z,23.03
2023-05-05T04:44:23.108Z,22.20
2023-05-05T04:46:51.038Z,24.57
2023-05-05T04:49:18.942Z,21.53
2023-05-05T04:51:46.907Z,25.93
2023-05-05T04:54:14.902Z,21.67
2023-05-05T04:56:43.647Z,24.80
2023-05-05T04:59:11.446Z,21.60
2023-05-05T05:01:39.330Z,26.50
2023-05-05T05:04:08.288Z,26.20
2023-05-05T05:06:36.723Z,29.43
2023-05-05T05:09:04.754Z,24.60
2023-05-05T05:11:33.005Z,24.43
2023-05-05T05:14:02.470Z,22.13
2023-05-05T05:16:30.862Z,25.20
2023-05-05T05:18:59.096Z,22.10
2023-05-05T05:21:28.790Z,20.63
2023-05-05T05:23:56.495Z,20.97
2023-05-05T05:26:25.353Z,21.17
2023-05-05T05:28:56.274Z,22.70
2023-05-05T05:31:25.087Z,20.70
2023-05-05T05:33:53.016Z,20.20
2023-05-05T05:36:20.892Z,20.27
2023-05-05T05:38:48.627Z,21.60
2023-05-05T05:41:17.101Z,23.50
2023-05-05T05:43:44.948Z,22.63
2023-05-05T05:46:12.859Z,21.07
2023-05-05T05:48:42.368Z,20.20
2023-05-05T05:51:10.420Z,20.93
2023-05-05T05:53:38.596Z,21.23
2023-05-05T05:56:07.895Z,16.23
2023-05-05T05:58:35.868Z,20.17
2023-05-05T06:01:05.137Z,17.17
2023-05-05T06:03:33.826Z,21.73
2023-05-05T06:06:01.972Z,19.10
2023-05-05T06:08:30.176Z,17.23
2023-05-05T06:11:00.676Z,14.83
2023-05-05T06:13:28.484Z,15.40
2023-05-05T06:15:56.190Z,14.57
2023-05-05T06:18:24.249Z,13.60
2023-05-05T06:20:52.936Z,11.30
2023-05-05T06:23:24.111Z,15.20
2023-05-05T06:25:57.053Z,10.93
2023-05-05T06:28:25.108Z,17.83
2023-05-05T06:30:53.289Z,10.40
2023-05-05T06:33:21.341Z,10.63
2023-05-05T06:35:49.643Z,10.03
2023-05-05T06:38:17.336Z,10.13
2023-05-05T06:40:45.086Z,12.73
2023-05-05T06:43:12.727Z,8.40
2023-05-05T06:45:46.323Z,10.83
2023-05-05T06:48:14.280Z,10.40
2023-05-05T06:50:42.452Z,11.50
2023-05-05T06:53:10.370Z,12.30
2023-05-05T06:55:38.102Z,12.10
2023-05-05T06:58:05.927Z,10.63
2023-05-05T07:00:33.737Z,10.03
2023-05-05T07:03:01.796Z,13.53
2023-05-05T07:05:29.499Z,11.00
2023-05-05T07:07:58.748Z,9.00
2023-05-05T07:10:28.389Z,10.73
2023-05-05T07:12:56.724Z,12.73
2023-05-05T07:15:29.281Z,13.13
2023-05-05T07:17:58.439Z,10.97
2023-05-05T07:20:26.757Z,9.73
2023-05-05T07:22:54.730Z,10.87
2023-05-05T07:25:22.512Z,9.80
2023-05-05T07:27:51.065Z,10.73
2023-05-05T07:30:19.482Z,10.20
2023-05-05T07:32:47.816Z,11.07
2023-05-05T07:35:15.974Z,11.43
2023-05-05T07:37:46.172Z,11.80
2023-05-05T07:40:14.631Z,12.90
2023-05-05T07:42:42.529Z,13.73
2023-05-05T07:45:11.485Z,13.00
2023-05-05T07:47:40.645Z,14.40
2023-05-05T07:50:09.849Z,13.17
2023-05-05T07:52:48.402Z,17.70
2023-05-05T07:55:21.710Z,11.87
2023-05-05T07:57:50.400Z,12.93
2023-05-05T08:00:19.688Z,12.67
2023-05-05T08:02:48.169Z,16.80
2023-05-05T08:05:16.861Z,12.33
2023-05-05T08:07:44.628Z,12.70
2023-05-05T08:10:13.421Z,12.17
2023-05-05T08:12:42.243Z,12.23
2023-05-05T08:15:11.079Z,10.17
2023-05-05T08:17:53.116Z,11.63
2023-05-05T08:20:22.216Z,11.30
2023-05-05T08:22:50.683Z,10.20
2023-05-05T08:25:18.505Z,9.43
2023-05-05T08:27:46.340Z,12.20
2023-05-05T08:30:16.655Z,10.27
2023-05-05T08:32:44.612Z,9.33
2023-05-05T08:35:12.843Z,9.30
2023-05-05T08:37:40.729Z,7.47
2023-05-05T08:40:16.566Z,9.10
2023-05-05T08:42:47.417Z,11.40
2023-05-05T08:45:16.099Z,10.00
2023-05-05T08:47:44.367Z,9.40
2023-05-05T08:50:13.066Z,8.60
2023-05-05T08:52:45.272Z,7.47
2023-05-05T08:55:33.421Z,10.17
2023-05-05T08:58:05.887Z,8.27
2023-05-05T09:00:36.283Z,7.70
2023-05-05T09:03:06.149Z,10.90
2023-05-05T09:05:34.100Z,7.73
2023-05-05T09:08:02.460Z,9.60
2023-05-05T09:10:31.220Z,6.87
2023-05-05T09:12:59.234Z,8.80
2023-05-05T09:15:28.550Z,8.43
2023-05-05T09:17:58.523Z,6.57
2023-05-05T09:20:37.773Z,7.73
2023-05-05T09:23:20.006Z,9.67
2023-05-05T09:26:05.465Z,9.13
2023-05-05T09:28:33.970Z,10.20
2023-05-05T09:31:16.351Z,8.83
2023-05-05T09:33:44.861Z,7.43
2023-05-05T09:36:12.669Z,8.10
2023-05-05T09:38:40.498Z,9.60
2023-05-05T09:41:08.376Z,9.63
2023-05-05T09:43:52.772Z,11.00
2023-05-05T09:46:20.792Z,12.57
2023-05-05T09:48:48.572Z,6.23
2023-05-05T09:51:16.664Z,7.60
2023-05-05T09:53:44.408Z,7.00
2023-05-05T09:56:12.611Z,7.93
2023-05-05T09:58:41.944Z,7.00
2023-05-05T10:01:24.124Z,7.20
2023-05-05T10:03:53.027Z,8.67
2023-05-05T10:06:39.171Z,6.43
2023-05-05T10:09:07.117Z,4.80
2023-05-05T10:11:36.576Z,5.50
2023-05-05T10:14:09.123Z,5.67
2023-05-05T10:16:44.048Z,5.80
2023-05-05T10:19:15.306Z,6.20
2023-05-05T10:21:54.771Z,5.90
2023-05-05T10:24:40.930Z,7.03
2023-05-05T10:27:24.666Z,7.57
2023-05-05T10:30:08.074Z,6.43
2023-05-05T10:33:07.896Z,6.07
2023-05-05T10:35:50.055Z,5.80
2023-05-05T10:38:20.079Z,5.13
2023-05-05T10:40:49.718Z,4.77
2023-05-05T10:43:18.669Z,5.80
2023-05-05T10:45:47.018Z,6.10
2023-05-05T10:48:56.819Z,5.37
2023-05-05T10:51:54.540Z,4.57
2023-05-05T10:54:58.148Z,6.77
2023-05-05T10:57:32.447Z,9.23
2023-05-05T11:00:00.420Z,4.87
2023-05-05T11:02:31.602Z,5.63
2023-05-05T11:05:20.818Z,11.27
2023-05-05T11:07:52.521Z,5.83
2023-05-05T11:10:23.101Z,5.07
2023-05-05T11:13:03.204Z,5.83
2023-05-05T11:15:31.054Z,4.73
2023-05-05T11:18:05.041Z,5.00
2023-05-05T11:20:39.690Z,6.03
2023-05-05T11:23:08.178Z,4.30
2023-05-05T11:25:42.256Z,9.10
2023-05-05T11:28:25.690Z,6.60
2023-05-05T11:30:59.473Z,7.50
2023-05-05T11:33:38.430Z,5.97
2023-05-05T11:36:09.701Z,6.50
2023-05-05T11:39:26.367Z,7.17
2023-05-05T11:42:32.992Z,6.20
2023-05-05T11:45:01.310Z,6.60
2023-05-05T11:47:32.398Z,5.90
2023-05-05T11:50:17.493Z,5.23
2023-05-05T11:52:49.769Z,4.63
2023-05-05T11:55:23.144Z,10.37
2023-05-05T11:57:59.716Z,5.90
2023-05-05T12:00:35.084Z,5.57
2023-05-05T12:03:04.473Z,7.73
2023-05-05T12:05:36.482Z,9.30
2023-05-05T12:08:07.086Z,15.50
2023-05-05T12:10:35.231Z,7.60
2023-05-05T12:13:03.026Z,9.23
2023-05-05T12:15:34.608Z,8.10
2023-05-05T12:18:06.479Z,10.43
2023-05-05T12:20:36.691Z,12.80
2023-05-05T12:23:05.368Z,7.30
2023-05-05T12:25:39.227Z,10.37
2023-05-05T12:28:09.798Z,8.53
2023-05-05T12:30:37.927Z,7.30
2023-05-05T12:33:08.849Z,6.60
2023-05-05T12:35:37.324Z,7.70
2023-05-05T12:38:06.081Z,14.43
2023-05-05T12:40:53.112Z,10.17
2023-05-05T12:43:38.879Z,10.50
2023-05-05T12:46:12.469Z,12.07
2023-05-05T12:48:47.973Z,11.53
2023-05-05T12:51:23.710Z,11.30
2023-05-05T12:54:10.569Z,7.03
2023-05-05T12:56:46.518Z,10.60
2023-05-05T12:59:23.322Z,8.43
2023-05-05T13:02:01.597Z,8.73
2023-05-05T13:04:30.140Z,6.93
2023-05-05T13:07:17.085Z,7.93
2023-05-05T13:09:46.388Z,7.97
2023-05-05T13:12:15.798Z,7.53
2023-05-05T13:14:44.477Z,7.20
2023-05-05T13:17:14.769Z,9.10
2023-05-05T13:19:46.181Z,7.63
2023-05-05T13:22:14.847Z,6.27
2023-05-05T13:24:51.668Z,8.00
2023-05-05T13:27:21.395Z,7.73
2023-05-05T13:29:49.354Z,9.10
2023-05-05T13:32:17.004Z,7.53
2023-05-05T13:34:44.805Z,5.60
2023-05-05T13:37:12.761Z,5.73
2023-05-05T13:39:40.838Z,5.30
2023-05-05T13:42:08.908Z,6.63
2023-05-05T13:44:36.789Z,5.83
2023-05-05T13:47:04.724Z,6.30
2023-05-05T13:49:32.482Z,7.73
2023-05-05T13:52:00.323Z,6.43
2023-05-05T13:54:28.224Z,4.17
2023-05-05T13:56:56.123Z,5.50
2023-05-05T13:59:25.959Z,4.57
2023-05-05T14:01:57.313Z,2.83
2023-05-05T14:04:25.781Z,3.50
2023-05-05T14:07:00.388Z,2.60
2023-05-05T14:09:31.253Z,3.20
2023-05-05T14:11:59.185Z,11.03
2023-05-05T14:14:26.973Z,5.70
2023-05-05T14:16:55.242Z,7.73
2023-05-05T14:19:23.456Z,5.67
2023-05-05T14:21:51.298Z,7.00
2023-05-05T14:24:19.028Z,6.53
2023-05-05T14:26:47.090Z,5.10
2023-05-05T14:29:14.783Z,6.50
2023-05-05T14:31:42.864Z,7.03
2023-05-05T14:34:10.741Z,10.13
2023-05-05T14:36:38.653Z,7.80
2023-05-05T14:39:06.468Z,13.00
2023-05-05T14:41:34.362Z,10.10
2023-05-05T14:44:02.177Z,12.77
2023-05-05T14:46:31.490Z,11.63
2023-05-05T14:48:59.611Z,11.27
2023-05-05T14:51:27.517Z,13.57
2023-05-05T14:53:55.341Z,15.33
2023-05-05T14:56:24.600Z,11.50
2023-05-05T14:58:53.486Z,8.67
2023-05-05T15:01:21.933Z,9.07
2023-05-05T15:03:49.975Z,7.27
2023-05-05T15:06:17.801Z,7.43
2023-05-05T15:08:46.079Z,8.27
2023-05-05T15:11:13.993Z,9.30
2023-05-05T15:13:41.899Z,6.97
2023-05-05T15:16:09.868Z,7.03
2023-05-05T15:18:38.505Z,4.70
2023-05-05T15:21:06.573Z,9.03
2023-05-05T15:23:34.845Z,3.73
2023-05-05T15:26:03.001Z,4.03
2023-05-05T15:28:31.883Z,6.63
2023-05-05T15:31:03.282Z,5.53
2023-05-05T15:33:31.144Z,7.73
2023-05-05T15:35:58.991Z,6.90
2023-05-05T15:38:29.100Z,4.83
2023-05-05T15:40:57.313Z,4.30
2023-05-05T15:43:25.215Z,5.27
2023-05-05T15:45:55.047Z,7.17
2023-05-05T15:48:22.848Z,3.60
2023-05-05T15:50:50.508Z,4.07
2023-05-05T15:53:18.332Z,4.30
2023-05-05T15:55:46.356Z,4.53
2023-05-05T15:58:14.200Z,5.80
2023-05-05T16:00:42.008Z,3.23
2023-05-05T16:03:09.777Z,3.90
2023-05-05T16:05:37.580Z,3.77
2023-05-05T16:08:09.753Z,2.77
2023-05-05T16:10:40.756Z,2.53
2023-05-05T16:13:08.540Z,4.03
2023-05-05T16:15:36.262Z,3.03
2023-05-05T16:18:04.267Z,5.90
2023-05-05T16:20:32.074Z,3.57
2023-05-05T16:22:59.744Z,3.57
2023-05-05T16:25:27.762Z,2.93
2023-05-05T16:27:57.633Z,3.40
2023-05-05T16:30:25.488Z,4.27
2023-05-05T16:32:54.755Z,3.67
2023-05-05T16:35:23.155Z,4.47
2023-05-05T16:37:50.803Z,2.97
2023-05-05T16:40:19.250Z,3.30
2023-05-05T16:42:49.457Z,2.83
2023-05-05T16:45:17.685Z,2.27
2023-05-05T16:47:45.928Z,1.90
2023-05-05T16:50:14.402Z,4.97
2023-05-05T16:52:42.764Z,2.33
2023-05-05T16:55:10.721Z,4.70
2023-05-05T16:57:41.129Z,4.67
2023-05-05T17:00:10.973Z,4.27
2023-05-05T17:02:38.870Z,6.37
2023-05-05T17:05:07.677Z,4.20
2023-05-05T17:07:35.611Z,3.67
2023-05-05T17:10:15.621Z,7.00
2023-05-05T17:12:43.629Z,5.47
2023-05-05T17:15:17.706Z,6.53
2023-05-05T17:17:45.545Z,6.00
2023-05-05T17:20:13.652Z,5.80
2023-05-05T17:22:41.433Z,5.10
2023-05-05T17:25:10.370Z,6.77
2023-05-05T17:27:38.668Z,11.03
2023-05-05T17:30:08.324Z,9.40
2023-05-05T17:32:36.333Z,7.77
2023-05-05T17:35:04.406Z,8.27
2023-05-05T17:37:32.545Z,7.87
2023-05-05T17:40:00.406Z,7.00
2023-05-05T17:42:30.399Z,6.50
2023-05-05T17:44:58.275Z,5.37
2023-05-05T17:47:26.939Z,8.43
2023-05-05T17:49:57.236Z,9.50
2023-05-05T17:52:26.351Z,7.90
2023-05-05T17:54:54.214Z,6.30
2023-05-05T17:57:22.946Z,5.90
2023-05-05T17:59:53.694Z,8.57
2023-05-05T18:02:25.190Z,8.27
2023-05-05T18:04:53.086Z,5.23
2023-05-05T18:07:20.709Z,5.93
2023-05-05T18:09:49.493Z,9.10
2023-05-05T18:12:17.540Z,28.97
2023-05-05T18:14:45.361Z,6.67
2023-05-05T18:17:13.057Z,6.00
2023-05-05T18:19:46.614Z,9.13
2023-05-05T18:22:16.642Z,6.73
2023-05-05T18:24:44.520Z,7.90
2023-05-05T18:27:12.401Z,15.27
2023-05-05T18:29:40.305Z,13.63
2023-05-05T18:32:08.254Z,9.80
2023-05-05T18:34:36.140Z,6.50
2023-05-05T18:37:03.874Z,70.67
2023-05-05T18:39:32.548Z,16.47
2023-05-05T18:42:00.630Z,7.63
2023-05-05T18:44:28.386Z,7.90
2023-05-05T18:46:56.559Z,21.00
2023-05-05T18:49:25.059Z,10.20
2023-05-05T18:51:53.851Z,27.53
2023-05-05T18:54:22.144Z,13.40
2023-05-05T18:56:50.160Z,11.10
2023-05-05T18:59:17.937Z,13.40
2023-05-05T19:01:45.713Z,13.10
2023-05-05T19:04:22.843Z,18.10
2023-05-05T19:06:58.620Z,12.23
2023-05-05T19:09:26.464Z,12.00
2023-05-05T19:11:54.361Z,16.70
2023-05-05T19:14:23.557Z,15.33
2023-05-05T19:16:53.060Z,16.90
2023-05-05T19:19:20.920Z,14.60
2023-05-05T19:21:49.065Z,14.87
2023-05-05T19:24:17.352Z,15.73
2023-05-05T19:26:51.681Z,16.83
2023-05-05T19:29:23.175Z,15.80
2023-05-05T19:31:55.060Z,18.20
2023-05-05T19:34:28.368Z,20.80
2023-05-05T19:37:01.441Z,20.30
2023-05-05T19:39:29.899Z,22.83
2023-05-05T19:41:57.585Z,20.73
2023-05-05T19:44:25.431Z,22.90
2023-05-05T19:46:53.818Z,26.60
2023-05-05T19:49:21.717Z,23.07
2023-05-05T19:51:50.465Z,25.93
2023-05-05T19:54:18.666Z,22.40
2023-05-05T19:56:46.429Z,20.77
2023-05-05T19:59:14.086Z,22.87
2023-05-05T20:01:42.035Z,24.20
2023-05-05T20:04:10.056Z,26.53
2023-05-05T20:06:38.048Z,23.77
2023-05-05T20:09:06.397Z,22.63
2023-05-05T20:11:34.679Z,20.33
2023-05-05T20:14:02.718Z,26.40
2023-05-05T20:16:30.802Z,23.20
2023-05-05T20:19:02.052Z,19.77
2023-05-05T20:21:33.680Z,29.40
2023-05-05T20:24:05.753Z,24.37
2023-05-05T20:26:38.280Z,25.83
2023-05-05T20:29:08.848Z,24.23
2023-05-05T20:31:40.049Z,25.40
2023-05-05T20:34:08.568Z,22.40
2023-05-05T20:36:38.418Z,25.07
2023-05-05T20:39:08.942Z,28.40
2023-05-05T20:41:38.053Z,24.57
2023-05-05T20:44:06.032Z,26.23
2023-05-05T20:46:33.843Z,28.23
2023-05-05T20:49:01.996Z,27.23
2023-05-05T20:51:34.334Z,29.30
2023-05-05T20:54:03.364Z,33.77
2023-05-05T20:56:31.026Z,30.50
2023-05-05T20:58:58.835Z,30.60
2023-05-05T21:01:26.729Z,30.00
2023-05-05T21:03:54.652Z,27.83
2023-05-05T21:06:22.489Z,34.23
2023-05-05T21:08:50.318Z,31.00
2023-05-05T21:11:18.087Z,33.57
2023-05-05T21:13:45.889Z,30.10
2023-05-05T21:16:14.272Z,30.90
2023-05-05T21:18:46.767Z,28.30
2023-05-05T21:21:14.499Z,28.50
2023-05-05T21:23:42.335Z,29.77
2023-05-05T21:26:10.581Z,32.33
2023-05-05T21:28:38.255Z,31.60
2023-05-05T21:31:21.284Z,36.00
2023-05-05T21:33:50.216Z,32.40
2023-05-05T21:36:19.367Z,32.63
2023-05-05T21:38:47.263Z,36.17
2023-05-05T21:41:15.052Z,36.83
2023-05-05T21:43:43.429Z,32.00
2023-05-05T21:46:11.269Z,36.27
2023-05-05T21:48:40.056Z,32.20
2023-05-05T21:51:09.027Z,33.40
2023-05-05T21:53:37.860Z,38.47
2023-05-05T21:56:10.379Z,41.77
2023-05-05T21:58:38.206Z,37.87
2023-05-05T22:01:05.958Z,44.00
2023-05-05T22:03:35.369Z,36.50
2023-05-05T22:06:04.032Z,37.80
2023-05-05T22:08:31.836Z,35.10
2023-05-05T22:10:59.509Z,33.90
2023-05-05T22:13:27.326Z,40.37
2023-05-05T22:15:55.189Z,38.00
2023-05-05T22:18:27.014Z,38.80
2023-05-05T22:20:55.646Z,38.43
2023-05-05T22:23:23.378Z,37.57
2023-05-05T22:25:51.175Z,41.60
2023-05-05T22:28:18.917Z,41.67
2023-05-05T22:30:46.632Z,49.63
2023-05-05T22:33:14.817Z,42.37
2023-05-05T22:35:42.975Z,41.20
2023-05-05T22:38:10.685Z,37.63
2023-05-05T22:40:38.750Z,36.07
2023-05-05T22:43:06.402Z,39.10
2023-05-05T22:45:34.320Z,39.50
2023-05-05T22:48:02.629Z,36.00
2023-05-05T22:50:30.520Z,36.13
2023-05-05T22:52:58.264Z,39.17
2023-05-05T22:55:26.127Z,36.83
2023-05-05T22:57:53.976Z,37.90
2023-05-05T23:00:21.771Z,42.00
2023-05-05T23:02:49.451Z,36.40
2023-05-05T23:05:17.305Z,39.23
2023-05-05T23:07:45.110Z,39.07
2023-05-05T23:10:12.861Z,38.23
2023-05-05T23:12:40.707Z,32.83
2023-05-05T23:15:10.144Z,43.03
2023-05-05T23:17:38.164Z,45.20
2023-05-05T23:20:09.712Z,47.50
2023-05-05T23:22:37.537Z,43.20
2023-05-05T23:25:07.414Z,53.87
2023-05-05T23:27:35.420Z,54.60
2023-05-05T23:30:03.216Z,46.10
2023-05-05T23:32:31.013Z,48.60
2023-05-05T23:34:58.673Z,51.80
2023-05-05T23:37:26.363Z,51.90
2023-05-05T23:39:54.056Z,47.60
2023-05-05T23:42:21.728Z,47.70
2023-05-05T23:44:49.389Z,50.07
2023-05-05T23:47:17.119Z,54.13
2023-05-05T23:49:44.896Z,50.30
2023-05-05T23:52:13.372Z,59.23
2023-05-05T23:54:41.409Z,55.77
2023-05-05T23:57:09.024Z,57.40
2023-05-05T23:59:36.676Z,58.97
